createdAt,value
2023-05-18T00:00:55.472Z,102080.69
2023-05-18T00:03:22.260Z,102079.34
2023-05-18T00:05:49.283Z,102076.06
2023-05-18T00:08:16.197Z,102069.19
2023-05-18T00:10:42.914Z,102075.75
2023-05-18T00:13:09.349Z,102071.63
2023-05-18T00:15:35.830Z,102073.75
2023-05-18T00:18:02.951Z,102073.56
2023-05-18T00:20:30.058Z,102079.28
2023-05-18T00:22:56.691Z,102074.03
2023-05-18T00:25:23.210Z,102079.09
2023-05-18T00:27:52.131Z,102073.03
2023-05-18T00:30:18.976Z,102084.53
2023-05-18T00:32:45.968Z,102079.25
2023-05-18T00:35:12.763Z,102075.16
2023-05-18T00:37:39.215Z,102077.78
2023-05-18T00:40:06.697Z,102078.41
2023-05-18T00:42:33.176Z,102073.97
2023-05-18T00:44:59.527Z,102079.88
2023-05-18T00:47:26.100Z,102077.44
2023-05-18T00:49:52.558Z,102084.47
2023-05-18T00:52:19.663Z,102085.94
2023-05-18T00:54:46.320Z,102074.25
2023-05-18T00:57:12.770Z,102075.75
2023-05-18T00:59:40.076Z,102085.25
2023-05-18T01:02:06.889Z,102082.28
2023-05-18T01:04:34.048Z,102084.56
2023-05-18T01:07:06.850Z,102083.25
2023-05-18T01:09:34.598Z,102089.97
2023-05-18T01:12:21.358Z,102080.88
2023-05-18T01:15:28.857Z,102072.84
2023-05-18T01:18:05.053Z,102075.63
2023-05-18T01:20:39.763Z,102084.31
2023-05-18T01:23:45.032Z,102074.94
2023-05-18T01:26:15.381Z,102075.28
2023-05-18T01:28:46.291Z,102074.44
2023-05-18T01:31:15.142Z,102074.75
2023-05-18T01:33:42.153Z,102075.09
2023-05-18T01:36:09.186Z,102078.19
2023-05-18T01:38:36.473Z,102079.66
2023-05-18T01:41:11.983Z,102086.69
2023-05-18T01:43:46.803Z,102089.47
2023-05-18T01:46:28.302Z,102096.41
2023-05-18T01:49:00.149Z,102091.97
2023-05-18T01:51:32.973Z,102092.25
2023-05-18T01:54:04.761Z,102100.34
2023-05-18T01:56:33.440Z,102093.06
2023-05-18T01:59:00.583Z,102086.06
2023-05-18T02:01:27.185Z,102084.91
2023-05-18T02:03:54.057Z,102081.81
2023-05-18T02:06:20.925Z,102085.44
2023-05-18T02:08:47.745Z,102082.31
2023-05-18T02:11:14.462Z,102088.72
2023-05-18T02:13:41.297Z,102085.09
2023-05-18T02:16:08.284Z,102090.34
2023-05-18T02:18:36.499Z,102083.94
2023-05-18T02:21:04.047Z,102075.56
2023-05-18T02:23:31.228Z,102085.09
2023-05-18T02:25:58.147Z,102085.72
2023-05-18T02:28:24.845Z,102088.84
2023-05-18T02:30:51.500Z,102081.91
2023-05-18T02:33:19.641Z,102089.81
2023-05-18T02:35:46.668Z,102082.06
2023-05-18T02:38:13.173Z,102091.56
2023-05-18T02:40:39.802Z,102089.13
2023-05-18T02:43:06.161Z,102086.66
2023-05-18T02:45:32.876Z,102094.50
2023-05-18T02:47:59.509Z,102092.03
2023-05-18T02:50:26.017Z,102092.84
2023-05-18T02:52:52.527Z,102089.56
2023-05-18T02:55:19.187Z,102092.16
2023-05-18T02:57:47.068Z,102095.59
2023-05-18T03:00:16.649Z,102095.38
2023-05-18T03:02:44.299Z,102087.97
2023-05-18T03:05:11.065Z,102094.00
2023-05-18T03:07:37.762Z,102095.28
2023-05-18T03:10:04.627Z,102097.38
2023-05-18T03:12:31.129Z,102098.81
2023-05-18T03:14:57.678Z,102100.56
2023-05-18T03:17:24.406Z,102099.25
2023-05-18T03:19:51.587Z,102097.09
2023-05-18T03:22:17.965Z,102103.00
2023-05-18T03:24:44.728Z,102103.00
2023-05-18T03:27:13.110Z,102102.16
2023-05-18T03:29:39.801Z,102101.34
2023-05-18T03:32:06.689Z,102104.13
2023-05-18T03:34:33.148Z,102107.75
2023-05-18T03:37:00.099Z,102101.34
2023-05-18T03:39:26.543Z,102110.81
2023-05-18T03:41:53.019Z,102113.94
2023-05-18T03:44:19.456Z,102114.25
2023-05-18T03:46:46.185Z,102111.47
2023-05-18T03:49:12.972Z,102118.19
2023-05-18T03:51:40.740Z,102122.63
2023-05-18T03:54:07.315Z,102116.53
2023-05-18T03:56:33.935Z,102120.97
2023-05-18T03:59:00.598Z,102111.75
2023-05-18T04:01:30.570Z,102115.41
2023-05-18T04:03:57.924Z,102114.88
2023-05-18T04:06:26.043Z,102108.47
2023-05-18T04:08:53.677Z,102110.94
2023-05-18T04:11:21.465Z,102117.16
2023-05-18T04:13:48.083Z,102121.59
2023-05-18T04:16:14.759Z,102118.31
2023-05-18T04:18:41.648Z,102120.56
2023-05-18T04:21:08.977Z,102123.69
2023-05-18T04:23:39.614Z,102127.59
2023-05-18T04:26:06.806Z,102131.50
2023-05-18T04:28:33.538Z,102126.25
2023-05-18T04:31:01.768Z,102124.63
2023-05-18T04:33:29.463Z,102120.19
2023-05-18T04:35:55.886Z,102123.47
2023-05-18T04:38:25.250Z,102127.06
2023-05-18T04:40:52.035Z,102128.72
2023-05-18T04:43:18.602Z,102133.47
2023-05-18T04:45:50.668Z,102126.75
2023-05-18T04:48:20.125Z,102131.22
2023-05-18T04:50:46.997Z,102132.84
2023-05-18T04:53:13.793Z,102128.09
2023-05-18T04:55:40.260Z,102129.25
2023-05-18T04:58:06.617Z,102135.66
2023-05-18T05:00:33.121Z,102132.84
2023-05-18T05:02:59.901Z,102136.97
2023-05-18T05:05:27.082Z,102139.47
2023-05-18T05:07:54.426Z,102137.50
2023-05-18T05:10:22.517Z,102131.09
2023-05-18T05:12:51.978Z,102141.09
2023-05-18T05:15:19.375Z,102139.13
2023-05-18T05:17:50.131Z,102140.28
2023-05-18T05:20:17.915Z,102143.56
2023-05-18T05:22:44.668Z,102144.09
2023-05-18T05:25:11.634Z,102142.41
2023-05-18T05:27:38.204Z,102138.53
2023-05-18T05:30:05.966Z,102148.53
2023-05-18T05:32:33.828Z,102152.94
2023-05-18T05:35:00.347Z,102137.56
2023-05-18T05:37:26.785Z,102141.19
2023-05-18T05:39:53.417Z,102144.47
2023-05-18T05:42:19.816Z,102155.63
2023-05-18T05:44:46.324Z,102152.84
2023-05-18T05:47:12.888Z,102145.28
2023-05-18T05:49:39.582Z,102145.00
2023-05-18T05:52:06.405Z,102145.50
2023-05-18T05:54:33.059Z,102146.00
2023-05-18T05:56:59.735Z,102147.03
2023-05-18T05:59:26.546Z,102138.88
2023-05-18T06:01:53.302Z,102145.47
2023-05-18T06:04:20.417Z,102145.34
2023-05-18T06:06:49.688Z,102156.69
2023-05-18T06:09:16.357Z,102152.63
2023-05-18T06:11:43.344Z,102149.38
2023-05-18T06:14:09.765Z,102156.50
2023-05-18T06:16:36.480Z,102161.09
2023-05-18T06:19:03.318Z,102157.38
2023-05-18T06:21:29.874Z,102162.00
2023-05-18T06:23:57.029Z,102159.41
2023-05-18T06:26:23.530Z,102156.00
2023-05-18T06:28:50.067Z,102165.88
2023-05-18T06:31:19.115Z,102163.28
2023-05-18T06:33:45.908Z,102165.13
2023-05-18T06:36:12.326Z,102164.50
2023-05-18T06:38:38.744Z,102175.84
2023-05-18T06:41:05.275Z,102169.13
2023-05-18T06:43:32.936Z,102171.78
2023-05-18T06:45:59.724Z,102177.22
2023-05-18T06:48:28.475Z,102180.19
2023-05-18T06:50:55.895Z,102172.84
2023-05-18T06:53:23.392Z,102172.38
2023-05-18T06:55:50.338Z,102177.00
2023-05-18T06:58:18.367Z,102176.84
2023-05-18T07:00:45.611Z,102171.13
2023-05-18T07:03:12.265Z,102173.75
2023-05-18T07:05:39.731Z,102170.00
2023-05-18T07:08:07.565Z,102179.09
2023-05-18T07:10:36.073Z,102178.13
2023-05-18T07:13:02.754Z,102177.97
2023-05-18T07:15:29.681Z,102175.84
2023-05-18T07:17:56.988Z,102181.28
2023-05-18T07:20:26.443Z,102180.31
2023-05-18T07:22:55.130Z,102181.81
2023-05-18T07:25:22.547Z,102175.72
2023-05-18T07:27:52.279Z,102186.13
2023-05-18T07:30:18.822Z,102187.00
2023-05-18T07:32:45.872Z,102183.69
2023-05-18T07:35:13.671Z,102181.44
2023-05-18T07:37:40.364Z,102175.50
2023-05-18T07:40:10.156Z,102172.03
2023-05-18T07:42:37.746Z,102169.41
2023-05-18T07:45:04.508Z,102170.88
2023-05-18T07:47:30.959Z,102173.97
2023-05-18T07:50:00.144Z,102174.94
2023-05-18T07:52:26.732Z,102168.50
2023-05-18T07:54:55.173Z,102163.50
2023-05-18T07:57:21.906Z,102162.94
2023-05-18T07:59:48.423Z,102164.69
2023-05-18T08:02:17.009Z,102163.13
2023-05-18T08:04:43.614Z,102172.13
2023-05-18T08:07:10.859Z,102163.13
2023-05-18T08:09:37.328Z,102165.19
2023-05-18T08:12:05.926Z,102166.44
2023-05-18T08:14:32.284Z,102168.16
2023-05-18T08:16:58.816Z,102162.75
2023-05-18T08:19:27.514Z,102166.44
2023-05-18T08:21:55.549Z,102162.16
2023-05-18T08:24:21.967Z,102160.69
2023-05-18T08:26:50.111Z,102166.31
2023-05-18T08:29:16.525Z,102162.03
2023-05-18T08:31:43.267Z,102157.63
2023-05-18T08:34:09.897Z,102154.34
2023-05-18T08:36:37.158Z,102151.88
2023-05-18T08:39:05.516Z,102142.63
2023-05-18T08:41:40.329Z,102150.47
2023-05-18T08:44:16.957Z,102140.72
2023-05-18T08:46:48.469Z,102139.44
2023-05-18T08:49:18.679Z,102142.97
2023-05-18T08:51:51.391Z,102140.28
2023-05-18T08:54:21.442Z,102145.91
2023-05-18T08:56:56.433Z,102135.09
2023-05-18T08:59:33.768Z,102142.22
2023-05-18T09:02:00.412Z,102144.34
2023-05-18T09:04:28.704Z,102141.09
2023-05-18T09:06:56.516Z,102143.09
2023-05-18T09:09:25.517Z,102129.72
2023-05-18T09:11:52.245Z,102137.19
2023-05-18T09:14:19.019Z,102129.00
2023-05-18T09:16:45.592Z,102126.78
2023-05-18T09:19:13.457Z,102122.56
2023-05-18T09:21:40.211Z,102133.59
2023-05-18T09:24:06.996Z,102130.66
2023-05-18T09:26:33.436Z,102123.78
2023-05-18T09:29:02.370Z,102114.03
2023-05-18T09:31:30.975Z,102119.19
2023-05-18T09:34:04.005Z,102114.72
2023-05-18T09:36:32.548Z,102114.72
2023-05-18T09:38:59.029Z,102107.47
2023-05-18T09:41:28.308Z,102113.47
2023-05-18T09:43:54.991Z,102115.09
2023-05-18T09:46:22.131Z,102114.28
2023-05-18T09:48:54.141Z,102117.91
2023-05-18T09:51:25.805Z,102119.28
2023-05-18T09:53:59.194Z,102115.78
2023-05-18T09:56:27.213Z,102122.81
2023-05-18T09:58:54.223Z,102120.94
2023-05-18T10:01:20.787Z,102122.69
2023-05-18T10:03:48.498Z,102116.34
2023-05-18T10:06:20.240Z,102111.66
2023-05-18T10:08:46.913Z,102110.94
2023-05-18T10:11:17.865Z,102104.84
2023-05-18T10:13:48.059Z,102108.50
2023-05-18T10:16:16.880Z,102108.00
2023-05-18T10:18:45.707Z,102106.75
2023-05-18T10:21:14.403Z,102099.94
2023-05-18T10:23:42.568Z,102103.22
2023-05-18T10:26:10.282Z,102099.69
2023-05-18T10:28:48.486Z,102090.91
2023-05-18T10:31:30.241Z,102093.47
2023-05-18T10:34:00.191Z,102097.34
2023-05-18T10:36:30.272Z,102097.81
2023-05-18T10:38:59.897Z,102101.91
2023-05-18T10:41:27.688Z,102089.13
2023-05-18T10:43:55.061Z,102085.94
2023-05-18T10:46:27.131Z,102089.56
2023-05-18T10:48:54.363Z,102077.94
2023-05-18T10:51:21.427Z,102079.22
2023-05-18T10:53:48.553Z,102080.59
2023-05-18T10:56:18.241Z,102081.53
2023-05-18T10:58:45.780Z,102075.66
2023-05-18T11:01:13.712Z,102062.88
2023-05-18T11:06:10.696Z,102062.69
2023-05-18T11:08:46.369Z,102064.41
2023-05-18T11:11:13.070Z,102064.78
2023-05-18T11:13:51.373Z,102076.69
2023-05-18T11:16:19.386Z,102077.38
2023-05-18T11:18:52.792Z,102061.56
2023-05-18T11:21:50.365Z,102060.19
2023-05-18T11:24:31.124Z,102061.47
2023-05-18T11:27:07.622Z,102060.75
2023-05-18T11:29:36.162Z,102051.22
2023-05-18T11:32:04.840Z,102052.16
2023-05-18T11:34:45.449Z,102059.03
2023-05-18T11:37:38.295Z,102057.41
2023-05-18T11:40:15.296Z,102055.06
2023-05-18T11:42:41.937Z,102046.38
2023-05-18T11:45:09.557Z,102043.19
2023-05-18T11:47:37.017Z,102040.81
2023-05-18T11:50:07.021Z,102044.09
2023-05-18T11:52:33.694Z,102045.84
2023-05-18T11:55:01.375Z,102044.28
2023-05-18T11:57:33.729Z,102039.13
2023-05-18T12:00:02.904Z,102043.72
2023-05-18T12:02:33.031Z,102037.81
2023-05-18T12:05:01.293Z,102029.59
2023-05-18T12:07:30.230Z,102032.25
2023-05-18T12:10:03.255Z,102019.88
2023-05-18T12:12:30.543Z,102031.41
2023-05-18T12:14:59.271Z,102021.38
2023-05-18T12:17:40.564Z,102022.69
2023-05-18T12:20:08.721Z,102026.84
2023-05-18T12:22:35.773Z,102014.84
2023-05-18T12:25:02.432Z,102014.94
2023-05-18T12:27:29.462Z,102014.19
2023-05-18T12:29:55.938Z,102008.63
2023-05-18T12:32:23.834Z,102012.69
2023-05-18T12:34:51.437Z,102010.34
2023-05-18T12:37:19.193Z,102006.34
2023-05-18T12:39:52.341Z,102007.44
2023-05-18T12:42:18.870Z,102010.78
2023-05-18T12:44:46.026Z,102003.13
2023-05-18T12:47:13.209Z,101995.16
2023-05-18T12:49:41.722Z,102002.03
2023-05-18T12:52:13.048Z,102004.94
2023-05-18T12:55:03.094Z,102003.41
2023-05-18T12:57:31.339Z,101993.06
2023-05-18T12:59:58.161Z,101987.53
2023-05-18T13:02:34.107Z,101993.97
2023-05-18T13:05:06.451Z,101992.44
2023-05-18T13:07:35.927Z,101990.06
2023-05-18T13:10:10.463Z,101988.97
2023-05-18T13:12:42.923Z,101982.13
2023-05-18T13:15:18.250Z,101974.13
2023-05-18T13:18:01.596Z,101976.09
2023-05-18T13:20:36.591Z,101982.66
2023-05-18T13:23:10.400Z,101977.47
2023-05-18T13:25:37.367Z,101975.53
2023-05-18T13:28:05.546Z,101973.97
2023-05-18T13:30:32.910Z,101969.94
2023-05-18T13:33:00.758Z,101975.25
2023-05-18T13:35:27.293Z,101976.09
2023-05-18T13:37:54.049Z,101960.81
2023-05-18T13:40:22.152Z,101963.25
2023-05-18T13:42:48.939Z,101967.31
2023-05-18T13:45:16.378Z,101956.88
2023-05-18T13:47:47.743Z,101961.34
2023-05-18T13:50:14.332Z,101943.63
2023-05-18T13:52:41.011Z,101947.34
2023-05-18T13:55:09.956Z,101929.66
2023-05-18T13:57:37.365Z,101930.91
2023-05-18T14:00:13.542Z,101937.81
2023-05-18T14:02:41.869Z,101930.59
2023-05-18T14:05:09.490Z,101930.31
2023-05-18T14:07:41.181Z,101926.34
2023-05-18T14:10:09.762Z,101913.06
2023-05-18T14:12:36.276Z,101917.13
2023-05-18T14:15:03.795Z,101912.78
2023-05-18T14:17:33.285Z,101914.78
2023-05-18T14:20:00.277Z,101922.91
2023-05-18T14:22:27.409Z,101915.25
2023-05-18T14:24:56.536Z,101910.03
2023-05-18T14:27:23.081Z,101901.16
2023-05-18T14:29:50.599Z,101905.25
2023-05-18T14:32:17.487Z,101906.88
2023-05-18T14:34:43.912Z,101904.50
2023-05-18T14:37:10.340Z,101911.44
2023-05-18T14:39:37.739Z,101900.59
2023-05-18T14:42:04.688Z,101902.63
2023-05-18T14:44:31.166Z,101896.63
2023-05-18T14:46:57.708Z,101901.50
2023-05-18T14:49:24.252Z,101897.94
2023-05-18T14:51:50.675Z,101896.34
2023-05-18T14:54:18.989Z,101902.06
2023-05-18T14:56:45.620Z,101908.97
2023-05-18T14:59:12.089Z,101903.75
2023-05-18T15:01:39.607Z,101896.88
2023-05-18T15:04:06.302Z,101901.34
2023-05-18T15:06:33.677Z,101894.13
2023-05-18T15:09:02.051Z,101892.84
2023-05-18T15:11:28.469Z,101897.75
2023-05-18T15:13:54.894Z,101896.13
2023-05-18T15:16:21.558Z,101897.75
2023-05-18T15:18:48.035Z,101899.84
2023-05-18T15:21:14.660Z,101897.81
2023-05-18T15:23:41.120Z,101890.97
2023-05-18T15:26:09.237Z,101891.78
2023-05-18T15:28:36.415Z,101893.41
2023-05-18T15:31:02.919Z,101887.38
2023-05-18T15:33:29.364Z,101892.22
2023-05-18T15:35:57.112Z,101888.56
2023-05-18T15:38:23.584Z,101891.38
2023-05-18T15:40:50.763Z,101876.84
2023-05-18T15:43:17.594Z,101881.69
2023-05-18T15:45:44.638Z,101888.94
2023-05-18T15:48:11.543Z,101886.94
2023-05-18T15:50:38.012Z,101878.47
2023-05-18T15:53:04.721Z,101869.97
2023-05-18T15:55:33.295Z,101872.81
2023-05-18T15:57:59.625Z,101880.53
2023-05-18T16:00:26.605Z,101871.28
2023-05-18T16:02:53.393Z,101876.13
2023-05-18T16:05:19.982Z,101873.28
2023-05-18T16:07:46.795Z,101868.84
2023-05-18T16:10:14.390Z,101874.50
2023-05-18T16:12:41.166Z,101865.19
2023-05-18T16:15:08.028Z,101862.75
2023-05-18T16:17:34.743Z,101865.59
2023-05-18T16:20:03.970Z,101867.16
2023-05-18T16:22:33.475Z,101870.78
2023-05-18T16:24:59.862Z,101863.53
2023-05-18T16:27:26.631Z,101864.72
2023-05-18T16:29:53.095Z,101859.06
2023-05-18T16:32:20.261Z,101861.09
2023-05-18T16:34:46.644Z,101862.28
2023-05-18T16:37:13.130Z,101855.78
2023-05-18T16:39:39.806Z,101862.28
2023-05-18T16:42:08.087Z,101863.47
2023-05-18T16:44:36.318Z,101859.81
2023-05-18T16:47:03.004Z,101865.47
2023-05-18T16:49:29.491Z,101864.28
2023-05-18T16:51:57.023Z,101863.03
2023-05-18T16:54:23.461Z,101864.25
2023-05-18T16:56:49.917Z,101852.47
2023-05-18T16:59:17.015Z,101858.13
2023-05-18T17:01:43.538Z,101860.16
2023-05-18T17:04:10.394Z,101852.81
2023-05-18T17:06:37.828Z,101857.22
2023-05-18T17:09:06.468Z,101860.41
2023-05-18T17:11:33.477Z,101856.78
2023-05-18T17:14:01.422Z,101858.78
2023-05-18T17:16:28.421Z,101858.44
2023-05-18T17:18:57.855Z,101857.59
2023-05-18T17:21:25.108Z,101866.06
2023-05-18T17:23:51.477Z,101863.63
2023-05-18T17:26:17.965Z,101859.94
2023-05-18T17:28:44.406Z,101855.06
2023-05-18T17:31:11.683Z,101853.00
2023-05-18T17:33:38.863Z,101855.31
2023-05-18T17:36:05.584Z,101859.69
2023-05-18T17:38:33.176Z,101853.16
2023-05-18T17:40:59.591Z,101853.13
2023-05-18T17:43:26.008Z,101860.31
2023-05-18T17:45:52.563Z,101848.97
2023-05-18T17:48:20.239Z,101844.91
2023-05-18T17:50:47.716Z,101861.38
2023-05-18T17:53:14.453Z,101853.69
2023-05-18T17:55:42.236Z,101848.78
2023-05-18T17:58:10.079Z,101847.91
2023-05-18T18:00:41.780Z,101860.78
2023-05-18T18:03:08.537Z,101845.78
2023-05-18T18:05:36.704Z,101852.56
2023-05-18T18:08:03.368Z,101844.03
2023-05-18T18:10:32.829Z,101851.19
2023-05-18T18:12:59.526Z,101856.75
2023-05-18T18:15:27.704Z,101855.06
2023-05-18T18:17:55.169Z,101861.81
2023-05-18T18:20:22.054Z,101856.13
2023-05-18T18:22:48.739Z,101852.06
2023-05-18T18:25:15.260Z,101863.25
2023-05-18T18:27:41.943Z,101867.66
2023-05-18T18:30:09.081Z,101865.94
2023-05-18T18:32:35.805Z,101869.47
2023-05-18T18:35:03.623Z,101863.34
2023-05-18T18:37:30.128Z,101874.19
2023-05-18T18:39:56.553Z,101874.50
2023-05-18T18:42:23.291Z,101867.94
2023-05-18T18:44:52.788Z,101868.25
2023-05-18T18:47:19.343Z,101873.81
2023-05-18T18:49:45.808Z,101868.84
2023-05-18T18:52:13.863Z,101872.41
2023-05-18T18:54:41.340Z,101875.94
2023-05-18T18:57:08.366Z,101879.88
2023-05-18T18:59:35.445Z,101878.16
2023-05-18T19:02:02.245Z,101876.50
2023-05-18T19:04:28.820Z,101886.84
2023-05-18T19:06:56.191Z,101886.34
2023-05-18T19:09:22.844Z,101890.25
2023-05-18T19:11:50.274Z,101895.00
2023-05-18T19:14:17.469Z,101892.09
2023-05-18T19:16:43.939Z,101890.38
2023-05-18T19:19:11.767Z,101892.25
2023-05-18T19:21:38.560Z,101897.78
2023-05-18T19:24:07.450Z,101898.91
2023-05-18T19:26:34.554Z,101900.38
2023-05-18T19:29:01.129Z,101904.75
2023-05-18T19:31:28.574Z,101904.22
2023-05-18T19:33:55.269Z,101906.94
2023-05-18T19:36:21.933Z,101905.56
2023-05-18T19:38:51.268Z,101901.84
2023-05-18T19:41:17.690Z,101909.38
2023-05-18T19:43:44.418Z,101910.09
2023-05-18T19:46:11.443Z,101910.38
2023-05-18T19:48:37.886Z,101913.09
2023-05-18T19:51:04.374Z,101913.47
2023-05-18T19:53:30.800Z,101916.56
2023-05-18T19:55:57.224Z,101918.91
2023-05-18T19:58:23.831Z,101926.88
2023-05-18T20:00:52.641Z,101924.00
2023-05-18T20:03:20.743Z,101926.34
2023-05-18T20:05:48.026Z,101932.34
2023-05-18T20:08:14.830Z,101935.06
2023-05-18T20:10:41.235Z,101940.56
2023-05-18T20:13:07.872Z,101946.56
2023-05-18T20:15:36.707Z,101939.22
2023-05-18T20:18:06.647Z,101938.72
2023-05-18T20:20:36.336Z,101944.69
2023-05-18T20:23:03.579Z,101942.63
2023-05-18T20:25:34.870Z,101944.16
2023-05-18T20:28:03.154Z,101950.16
2023-05-18T20:30:30.080Z,101950.97
2023-05-18T20:32:58.907Z,101950.03
2023-05-18T20:35:26.177Z,101953.66
2023-05-18T20:37:59.475Z,101950.47
2023-05-18T20:40:28.007Z,101947.94
2023-05-18T20:42:54.468Z,101951.91
2023-05-18T20:45:22.757Z,101956.38
2023-05-18T20:47:53.586Z,101956.63
2023-05-18T20:50:23.136Z,101953.25
2023-05-18T20:52:50.707Z,101967.19
2023-05-18T20:55:18.402Z,101960.31
2023-05-18T20:57:46.369Z,101970.63
2023-05-18T21:00:13.518Z,101973.31
2023-05-18T21:02:44.989Z,101964.81
2023-05-18T21:05:16.170Z,101971.13
2023-05-18T21:07:43.944Z,101969.84
2023-05-18T21:10:11.921Z,101966.13
2023-05-18T21:12:38.588Z,101964.38
2023-05-18T21:15:05.488Z,101967.88
2023-05-18T21:17:32.172Z,101969.44
2023-05-18T21:19:59.989Z,101968.50
2023-05-18T21:22:26.407Z,101974.47
2023-05-18T21:24:52.876Z,101979.25
2023-05-18T21:27:19.284Z,101970.00
2023-05-18T21:29:45.937Z,101969.56
2023-05-18T21:32:12.796Z,101974.00
2023-05-18T21:34:41.147Z,101973.19
2023-05-18T21:37:09.399Z,101971.19
2023-05-18T21:39:35.976Z,101971.56
2023-05-18T21:42:03.422Z,101971.88
2023-05-18T21:44:30.060Z,101973.06
2023-05-18T21:46:57.892Z,101967.81
2023-05-18T21:49:25.021Z,101975.44
2023-05-18T21:51:51.913Z,101970.94
2023-05-18T21:54:18.265Z,101979.38
2023-05-18T21:56:44.854Z,101978.56
2023-05-18T21:59:11.304Z,101980.56
2023-05-18T22:01:37.916Z,101980.09
2023-05-18T22:04:04.736Z,101979.63
2023-05-18T22:06:31.205Z,101980.34
2023-05-18T22:08:57.650Z,101974.25
2023-05-18T22:11:24.461Z,101971.81
2023-05-18T22:13:51.058Z,101985.03
2023-05-18T22:16:17.496Z,101969.31
2023-05-18T22:18:44.128Z,101978.94
2023-05-18T22:21:10.719Z,101972.47
2023-05-18T22:23:38.752Z,101972.81
2023-05-18T22:26:05.360Z,101970.38
2023-05-18T22:28:31.779Z,101976.69
2023-05-18T22:30:58.141Z,101958.09
2023-05-18T22:33:24.971Z,101970.38
2023-05-18T22:35:51.369Z,101969.78
2023-05-18T22:38:17.942Z,101969.66
2023-05-18T22:40:45.414Z,101969.91
2023-05-18T22:43:12.005Z,101971.78
2023-05-18T22:45:38.394Z,101968.88
2023-05-18T22:48:05.116Z,101969.19
2023-05-18T22:50:31.981Z,101970.25
2023-05-18T22:52:58.708Z,101961.38
2023-05-18T22:55:25.144Z,101967.34
2023-05-18T22:57:51.779Z,101959.59
2023-05-18T23:00:18.377Z,101965.56
2023-05-18T23:02:44.843Z,101965.91
2023-05-18T23:05:11.868Z,101963.81
2023-05-18T23:07:41.691Z,101974.91
2023-05-18T23:10:13.586Z,101965.53
2023-05-18T23:12:40.314Z,101969.06
2023-05-18T23:15:07.284Z,101968.81
2023-05-18T23:17:33.978Z,101970.19
2023-05-18T23:20:08.254Z,101969.59
2023-05-18T23:22:34.935Z,101967.03
2023-05-18T23:25:02.251Z,101958.78
2023-05-18T23:27:28.994Z,101970.22
2023-05-18T23:29:56.359Z,101962.00
2023-05-18T23:32:23.491Z,101958.28
2023-05-18T23:34:52.841Z,101958.81
2023-05-18T23:37:20.923Z,101954.25
2023-05-18T23:39:51.649Z,101957.25
2023-05-18T23:42:21.425Z,101961.09
2023-05-18T23:44:48.644Z,101955.38
2023-05-18T23:47:16.506Z,101958.84
2023-05-18T23:49:44.169Z,101950.31
2023-05-18T23:52:11.686Z,101947.38
2023-05-18T23:54:38.580Z,101942.47
2023-05-18T23:57:05.703Z,101936.72
2023-05-18T23:59:32.647Z,101945.78
